Time,TemperatureF,DewpointF,PressureIn,WindDirection,WindDirectionDegrees,WindSpeedMPH,WindSpeedGustMPH,Humidity,HourlyPrecipIn,Conditions,Clouds,dailyrainin,SolarRadiationWatts/m^2,SoftwareType,DateUTC
2013-05-23 00:11:00,44.0,30.0,-100.00,SW,224,9.0,13.0,58,-99.99,,,0.00,0.000000,,2013-05-23 07:11:00,
2013-05-23 01:11:00,42.0,29.0,-100.00,WSW,246,10.0,15.0,59,-99.99,,,0.00,0.000000,,2013-05-23 08:11:00,
2013-05-23 02:11:00,40.0,30.0,-100.00,SSE,168,5.0,8.0,67,-99.99,,,0.00,0.000000,,2013-05-23 09:11:00,
2013-05-23 03:12:00,38.0,29.0,-100.00,South,182,5.0,7.0,71,-99.99,,,0.00,0.000000,,2013-05-23 10:12:00,
2013-05-23 04:11:00,37.0,29.0,-100.00,South,171,5.0,8.0,73,-99.99,,,0.00,0.000000,,2013-05-23 11:11:00,
2013-05-23 05:11:00,38.0,29.0,-100.00,SSW,200,5.0,9.0,68,-99.99,,,0.00,0.120000,,2013-05-23 12:11:00,
2013-05-23 06:11:00,35.0,28.0,-100.00,SSE,159,4.0,5.0,77,-99.99,,,0.00,0.350000,,2013-05-23 13:11:00,
2013-05-23 07:11:00,36.0,29.0,-100.00,South,175,4.0,6.0,74,-99.99,,,0.00,83.790001,,2013-05-23 14:11:00,
2013-05-23 08:11:00,40.0,30.0,-100.00,SSE,168,6.0,8.0,66,-99.99,,,0.00,117.269997,,2013-05-23 15:11:00,
2013-05-23 09:12:00,44.0,31.0,-100.00,SSW,208,8.0,12.0,58,-99.99,,,0.00,458.839996,,2013-05-23 16:12:00,
2013-05-23 10:11:00,48.0,30.0,-100.00,SSW,202,6.0,12.0,49,-99.99,,,0.00,663.960022,,2013-05-23 17:11:00,
2013-05-23 12:11:00,52.0,27.0,-100.00,South,188,6.0,12.0,38,-99.99,,,0.00,937.900024,,2013-05-23 19:11:00,
2013-05-23 13:11:00,55.0,25.0,-100.00,SW,216,5.0,11.0,30,-99.99,,,0.00,1016.919983,,2013-05-23 20:11:00,
2013-05-23 14:11:00,57.0,24.0,-100.00,SW,214,5.0,13.0,27,-99.99,,,0.00,894.890015,,2013-05-23 21:11:00,
2013-05-23 15:12:00,58.0,25.0,-100.00,West,263,6.0,15.0,27,-99.99,,,-99.99,465.230011,,2013-05-23 22:12:00,
2013-05-23 16:11:00,56.0,34.0,-100.00,NNW,337,12.0,16.0,43,-99.99,,,0.00,455.579987,,2013-05-23 23:11:00,
2013-05-23 17:12:00,55.0,36.0,-100.00,NNW,345,14.0,19.0,48,-99.99,,,0.00,665.359985,,2013-05-24 00:12:00,
2013-05-23 18:12:00,55.0,34.0,-100.00,NNE,12,5.0,9.0,45,-99.99,,,0.00,185.600006,,2013-05-24 01:12:00,
2013-05-23 19:11:00,54.0,34.0,-100.00,North,10,9.0,13.0,46,-99.99,,,0.00,164.449997,,2013-05-24 02:11:00,
2013-05-23 20:11:00,52.0,37.0,-100.00,North,359,4.0,7.0,55,-99.99,,,0.00,28.129999,,2013-05-24 03:11:00,
2013-05-23 21:12:00,50.0,39.0,-100.00,NNW,348,5.0,9.0,65,-99.99,,,0.00,3.950000,,2013-05-24 04:12:00,
2013-05-23 22:12:00,46.0,39.0,-100.00,SSW,195,2.0,7.0,75,-99.99,,,0.00,0.000000,,2013-05-24 05:12:00,
2013-05-23 23:12:00,46.0,37.0,-100.00,West,269,6.0,13.0,71,-99.99,,,0.00,0.000000,,2013-05-24 06:12:00,